createdAt,value
2019-05-05T00:00:55.032Z,93923.33
2019-05-05T00:03:24.981Z,93909.08
2019-05-05T00:08:16.852Z,93909.05
2019-05-05T00:10:46.075Z,93923.57
2019-05-05T00:13:14.783Z,93925.17
2019-05-05T00:15:39.373Z,93921.98
2019-05-05T00:20:35.720Z,93913.30
2019-05-05T00:23:02.350Z,93909.03
2019-05-05T00:25:28.992Z,93907.36
2019-05-05T00:27:55.622Z,93914.03
2019-05-05T00:30:22.310Z,93917.07
2019-05-05T00:32:48.945Z,93908.83
2019-05-05T00:35:15.619Z,93917.31
2019-05-05T00:37:42.252Z,93924.48
2019-05-05T00:40:08.897Z,93926.02
2019-05-05T00:42:35.543Z,93928.06
2019-05-05T00:45:02.214Z,93923.23
2019-05-05T00:47:28.852Z,93926.02
2019-05-05T00:49:56.341Z,93920.67
2019-05-05T00:52:22.141Z,93920.84
2019-05-05T00:54:48.798Z,93924.89
2019-05-05T00:57:15.468Z,93924.36
2019-05-05T00:59:42.100Z,93923.26
2019-05-05T01:02:08.786Z,93917.91
2019-05-05T01:04:35.393Z,93915.64
2019-05-05T01:07:02.078Z,93912.03
2019-05-05T01:09:28.763Z,93919.91
2019-05-05T01:11:55.395Z,93921.56
2019-05-05T01:14:22.056Z,93919.16
2019-05-05T01:19:15.381Z,93919.98
2019-05-05T01:21:42.026Z,93920.34
2019-05-05T01:24:08.668Z,93912.33
2019-05-05T01:26:35.501Z,93906.02
2019-05-05T01:29:02.006Z,93909.26
2019-05-05T01:31:28.640Z,93896.03
2019-05-05T01:33:55.285Z,93893.36
2019-05-05T01:36:23.704Z,93884.30
2019-05-05T01:38:48.571Z,93881.02
2019-05-05T01:41:15.263Z,93895.27
2019-05-05T01:43:41.896Z,93895.64
2019-05-05T01:46:08.534Z,93892.14
2019-05-05T01:48:35.222Z,93899.75
2019-05-05T01:53:28.502Z,93888.30
2019-05-05T01:55:55.187Z,93893.11
2019-05-05T01:58:21.824Z,93893.61
2019-05-05T02:00:48.465Z,93890.44
2019-05-05T02:03:15.096Z,93895.61
2019-05-05T02:05:41.781Z,93896.42
2019-05-05T02:08:08.422Z,93890.52
2019-05-05T02:10:35.118Z,93893.08
2019-05-05T02:13:01.763Z,93888.72
2019-05-05T02:15:28.421Z,93884.14
2019-05-05T02:17:55.193Z,93889.30
2019-05-05T02:20:28.757Z,93887.64
2019-05-05T02:22:48.363Z,93882.71
2019-05-05T02:25:15.002Z,93874.02
2019-05-05T02:27:41.683Z,93877.97
2019-05-05T02:30:08.323Z,93875.94
2019-05-05T02:32:36.119Z,93878.66
2019-05-05T02:35:01.645Z,93874.28
2019-05-05T02:37:28.275Z,93867.89
2019-05-05T02:40:01.402Z,93862.82
2019-05-05T02:42:21.563Z,93849.60
2019-05-05T02:44:48.222Z,93854.61
2019-05-05T02:47:15.621Z,93850.40
2019-05-05T02:49:41.519Z,93851.28
2019-05-05T02:52:08.166Z,93858.19
2019-05-05T02:54:34.790Z,93846.45
2019-05-05T02:57:01.443Z,93841.30
2019-05-05T02:59:28.086Z,93841.55
2019-05-05T03:01:54.792Z,93839.95
2019-05-05T03:04:21.473Z,93841.28
2019-05-05T03:06:48.100Z,93835.55
2019-05-05T03:09:14.757Z,93828.52
2019-05-05T03:11:43.560Z,93838.88
2019-05-05T03:14:08.073Z,93844.53
2019-05-05T03:16:34.719Z,93845.17
2019-05-05T03:19:03.434Z,93850.05
2019-05-05T03:21:28.031Z,93847.92
2019-05-05T03:26:23.303Z,93836.06
2019-05-05T03:28:48.133Z,93832.03
2019-05-05T03:31:15.935Z,93821.61
2019-05-05T03:33:41.456Z,93822.25
2019-05-05T03:36:08.144Z,93820.22
2019-05-05T03:38:34.777Z,93820.67
2019-05-05T03:41:03.508Z,93814.02
2019-05-05T03:43:28.109Z,93812.07
2019-05-05T03:45:54.753Z,93806.59
2019-05-05T03:48:21.450Z,93799.59
2019-05-05T03:50:48.077Z,93805.86
2019-05-05T03:53:14.739Z,93810.52
2019-05-05T03:55:41.383Z,93816.28
2019-05-05T03:58:08.033Z,93810.74
2019-05-05T04:00:34.720Z,93810.20
2019-05-05T04:03:01.360Z,93808.34
2019-05-05T04:05:28.049Z,93805.38
2019-05-05T04:07:54.692Z,93811.20
2019-05-05T04:10:21.405Z,93818.89
2019-05-05T04:12:48.050Z,93828.13
2019-05-05T04:15:14.760Z,93826.31
2019-05-05T04:17:41.405Z,93829.54
2019-05-05T04:20:08.069Z,93828.90
2019-05-05T04:22:34.710Z,93836.28
2019-05-05T04:25:01.354Z,93841.33
2019-05-05T04:27:27.999Z,93841.96
2019-05-05T04:29:54.670Z,93845.88
2019-05-05T04:32:21.329Z,93850.36
2019-05-05T04:34:48.016Z,93860.25
2019-05-05T04:37:15.048Z,93868.32
2019-05-05T04:39:41.298Z,93874.19
2019-05-05T04:42:07.954Z,93872.45
2019-05-05T04:44:34.896Z,93865.31
2019-05-05T04:47:01.260Z,93885.25
2019-05-05T04:49:27.900Z,93884.05
2019-05-05T04:51:54.589Z,93881.63
2019-05-05T04:54:21.223Z,93883.94
2019-05-05T04:56:47.855Z,93878.61
2019-05-05T04:59:14.535Z,93882.19
2019-05-05T05:01:41.223Z,93888.31
2019-05-05T05:04:07.867Z,93895.33
2019-05-05T05:06:34.565Z,93888.77
2019-05-05T05:11:27.893Z,93895.11
2019-05-05T05:13:54.571Z,93878.08
2019-05-05T05:16:21.225Z,93878.67
2019-05-05T05:18:47.853Z,93876.66
2019-05-05T05:21:14.734Z,93883.09
2019-05-05T05:23:41.193Z,93887.70
2019-05-05T05:26:07.841Z,93873.73
2019-05-05T05:28:34.495Z,93882.58
2019-05-05T05:31:01.125Z,93885.89
2019-05-05T05:33:27.793Z,93864.64
2019-05-05T05:35:54.770Z,93843.48
2019-05-05T05:38:21.130Z,93829.83
2019-05-05T05:40:47.766Z,93834.59
2019-05-05T05:43:15.776Z,93831.80
2019-05-05T05:45:41.085Z,93853.63
2019-05-05T05:48:07.708Z,93860.27
2019-05-05T05:50:35.777Z,93851.42
2019-05-05T05:53:01.028Z,93838.92
2019-05-05T05:55:27.665Z,93825.43
2019-05-05T05:57:54.336Z,93826.98
2019-05-05T06:00:20.938Z,93823.20
2019-05-05T06:02:47.579Z,93824.98
2019-05-05T06:05:14.792Z,93831.08
2019-05-05T06:07:40.859Z,93828.92
2019-05-05T06:10:07.540Z,93831.38
2019-05-05T06:12:34.187Z,93833.66
2019-05-05T06:15:00.831Z,93835.70
2019-05-05T06:17:27.478Z,93825.66
2019-05-05T06:19:54.119Z,93835.11
2019-05-05T06:22:28.502Z,93841.08
2019-05-05T06:24:47.449Z,93843.00
2019-05-05T06:27:14.370Z,93839.54
2019-05-05T06:29:40.807Z,93845.16
2019-05-05T06:32:07.462Z,93842.58
2019-05-05T06:34:34.158Z,93843.83
2019-05-05T06:37:00.829Z,93855.18
2019-05-05T06:39:27.462Z,93858.06
2019-05-05T06:44:20.870Z,93862.78
2019-05-05T06:46:47.500Z,93865.92
2019-05-05T06:49:14.165Z,93871.97
2019-05-05T06:51:40.810Z,93873.36
2019-05-05T06:54:07.516Z,93872.91
2019-05-05T06:56:34.308Z,93888.64
2019-05-05T06:59:00.944Z,93889.76
2019-05-05T07:01:27.630Z,93892.39
2019-05-05T07:03:54.290Z,93889.25
2019-05-05T07:06:20.887Z,93877.92
2019-05-05T07:08:47.577Z,93876.95
2019-05-05T07:11:14.639Z,93868.64
2019-05-05T07:13:40.847Z,93864.66
2019-05-05T07:16:07.470Z,93860.88
2019-05-05T07:18:34.329Z,93861.38
2019-05-05T07:21:00.795Z,93869.11
2019-05-05T07:23:27.454Z,93873.48
2019-05-05T07:25:55.028Z,93865.08
2019-05-05T07:28:20.751Z,93864.73
2019-05-05T07:30:47.424Z,93865.56
2019-05-05T07:33:14.891Z,93870.27
2019-05-05T07:35:53.421Z,93865.68
2019-05-05T07:38:07.317Z,93857.42
2019-05-05T07:43:00.596Z,93852.91
2019-05-05T07:45:27.296Z,93864.03
2019-05-05T07:47:54.450Z,93871.06
2019-05-05T07:50:29.570Z,93863.78
2019-05-05T07:52:47.249Z,93867.00
2019-05-05T07:55:14.408Z,93864.14
2019-05-05T07:57:40.616Z,93853.73
2019-05-05T08:00:07.259Z,93857.97
2019-05-05T08:02:34.050Z,93865.41
2019-05-05T08:05:00.585Z,93857.72
2019-05-05T08:07:27.220Z,93862.90
2019-05-05T08:09:53.934Z,93865.16
2019-05-05T08:12:20.523Z,93873.48
2019-05-05T08:14:47.307Z,93868.22
2019-05-05T08:17:15.239Z,93865.99
2019-05-05T08:19:40.642Z,93870.71
2019-05-05T08:22:07.281Z,93868.16
2019-05-05T08:24:33.923Z,93866.39
2019-05-05T08:29:29.959Z,93860.03
2019-05-05T08:31:56.603Z,93857.91
2019-05-05T08:34:24.471Z,93860.14
2019-05-05T08:36:49.881Z,93843.77
2019-05-05T08:39:16.541Z,93861.83
2019-05-05T08:41:45.379Z,93862.52
2019-05-05T08:44:09.857Z,93873.05
2019-05-05T08:46:36.556Z,93871.59
2019-05-05T08:49:04.385Z,93869.48
2019-05-05T08:51:29.829Z,93852.81
2019-05-05T08:53:56.473Z,93868.37
2019-05-05T08:56:23.807Z,93871.25
2019-05-05T08:58:50.060Z,93878.09
2019-05-05T09:01:16.432Z,93875.42
2019-05-05T09:03:44.362Z,93872.08
2019-05-05T09:06:09.704Z,93870.23
2019-05-05T09:08:36.348Z,93879.02
2019-05-05T09:11:04.750Z,93883.39
2019-05-05T09:15:56.419Z,93878.02
2019-05-05T09:18:24.630Z,93879.51
2019-05-05T09:20:49.774Z,93868.02
2019-05-05T09:23:16.433Z,93869.48
2019-05-05T09:25:44.665Z,93867.45
2019-05-05T09:28:09.830Z,93863.50
2019-05-05T09:30:36.468Z,93858.77
2019-05-05T09:33:03.598Z,93854.97
2019-05-05T09:35:29.799Z,93840.06
2019-05-05T09:37:56.496Z,93829.70
2019-05-05T09:40:24.172Z,93829.50
2019-05-05T09:42:49.819Z,93841.73
2019-05-05T09:45:16.453Z,93829.70
2019-05-05T09:47:45.003Z,93818.32
2019-05-05T09:50:09.729Z,93819.88
2019-05-05T09:52:36.399Z,93828.22
2019-05-05T09:55:03.865Z,93833.49
2019-05-05T09:57:29.686Z,93829.50
2019-05-05T09:59:56.327Z,93827.75
2019-05-05T10:02:24.033Z,93816.36
2019-05-05T10:04:49.723Z,93804.81
2019-05-05T10:07:16.356Z,93810.34
2019-05-05T10:09:43.767Z,93811.56
2019-05-05T10:14:36.353Z,93799.90
2019-05-05T10:17:04.851Z,93801.73
2019-05-05T10:19:29.689Z,93798.48
2019-05-05T10:21:56.342Z,93788.04
2019-05-05T10:24:28.538Z,93789.60
2019-05-05T10:26:49.719Z,93790.34
2019-05-05T10:29:16.408Z,93796.45
2019-05-05T10:31:43.704Z,93800.81
2019-05-05T10:34:09.785Z,93791.64
2019-05-05T10:36:36.401Z,93796.00
2019-05-05T10:39:04.389Z,93798.69
2019-05-05T10:41:29.730Z,93789.23
2019-05-05T10:43:56.379Z,93786.18
2019-05-05T10:46:23.596Z,93781.73
2019-05-05T10:48:53.792Z,93785.44
2019-05-05T10:51:19.328Z,93781.06
2019-05-05T10:53:45.987Z,93789.13
2019-05-05T10:56:13.679Z,93795.43
2019-05-05T10:58:39.340Z,93795.70
2019-05-05T11:01:06.001Z,93790.72
2019-05-05T11:03:34.338Z,93787.66
2019-05-05T11:05:59.337Z,93799.50
2019-05-05T11:08:25.999Z,93793.40
2019-05-05T11:10:52.693Z,93781.63
2019-05-05T11:13:19.404Z,93795.53
2019-05-05T11:15:46.056Z,93812.00
2019-05-05T11:18:14.897Z,93807.19
2019-05-05T11:20:39.423Z,93788.95
2019-05-05T11:23:06.149Z,93784.96
2019-05-05T11:25:33.740Z,93806.17
2019-05-05T11:27:59.509Z,93801.46
2019-05-05T11:30:26.909Z,93789.42
2019-05-05T11:32:53.011Z,93798.95
2019-05-05T11:35:19.659Z,93796.00
2019-05-05T11:37:46.368Z,93797.47
2019-05-05T11:40:15.758Z,93790.08
2019-05-05T11:42:42.455Z,93787.56
2019-05-05T11:47:35.808Z,93780.14
2019-05-05T11:50:04.399Z,93776.72
2019-05-05T11:52:29.099Z,93766.41
2019-05-05T11:55:08.927Z,93771.16
2019-05-05T11:57:23.959Z,93775.80
2019-05-05T11:59:50.526Z,93783.39
2019-05-05T12:02:15.871Z,93780.41
2019-05-05T12:04:42.576Z,93783.84
2019-05-05T12:07:09.235Z,93780.31
2019-05-05T12:09:35.870Z,93770.58
2019-05-05T12:12:03.803Z,93767.53
2019-05-05T12:14:29.195Z,93768.38
2019-05-05T12:16:55.881Z,93778.66
2019-05-05T12:19:24.361Z,93774.95
2019-05-05T12:21:49.214Z,93768.65
2019-05-05T12:24:15.894Z,93772.81
2019-05-05T12:26:43.967Z,93771.33
2019-05-05T12:29:09.217Z,93780.78
2019-05-05T12:31:35.900Z,93773.73
2019-05-05T12:34:03.944Z,93774.31
2019-05-05T12:36:29.204Z,93779.13
2019-05-05T12:38:59.119Z,93780.52
2019-05-05T12:41:25.747Z,93773.73
2019-05-05T12:43:55.339Z,93765.43
2019-05-05T12:46:21.981Z,93751.81
2019-05-05T12:48:48.673Z,93747.44
2019-05-05T12:51:15.314Z,93764.76
2019-05-05T12:53:41.955Z,93769.30
2019-05-05T12:56:08.597Z,93769.88
2019-05-05T12:58:35.278Z,93770.42
2019-05-05T13:01:03.743Z,93766.83
2019-05-05T13:03:29.352Z,93757.74
2019-05-05T13:05:57.998Z,93760.42
2019-05-05T13:08:23.424Z,93773.20
2019-05-05T13:10:49.452Z,93775.23
2019-05-05T13:13:16.113Z,93770.25
2019-05-05T13:15:44.278Z,93768.59
2019-05-05T13:18:09.397Z,93761.06
2019-05-05T13:20:36.164Z,93767.54
2019-05-05T13:23:04.164Z,93770.34
2019-05-05T13:25:29.504Z,93770.05
2019-05-05T13:27:57.400Z,93764.69
2019-05-05T13:30:23.630Z,93765.61
2019-05-05T13:32:49.487Z,93752.63
2019-05-05T13:35:16.156Z,93752.83
2019-05-05T13:37:44.356Z,93750.04
2019-05-05T13:40:09.451Z,93753.63
2019-05-05T13:42:36.089Z,93758.92
2019-05-05T13:45:03.928Z,93753.28
2019-05-05T13:47:29.441Z,93756.69
2019-05-05T13:49:56.044Z,93750.78
2019-05-05T13:52:24.403Z,93752.82
2019-05-05T13:54:49.324Z,93752.89
2019-05-05T13:57:16.002Z,93747.16
2019-05-05T13:59:44.473Z,93759.13
2019-05-05T14:02:09.297Z,93759.56
2019-05-05T14:07:04.026Z,93760.59
2019-05-05T14:09:29.297Z,93763.19
2019-05-05T14:11:55.955Z,93762.34
2019-05-05T14:14:24.221Z,93760.41
2019-05-05T14:16:49.562Z,93768.38
2019-05-05T14:19:16.197Z,93762.28
2019-05-05T14:21:44.566Z,93764.31
2019-05-05T14:24:09.495Z,93761.80
2019-05-05T14:26:36.155Z,93768.86
2019-05-05T14:29:04.271Z,93759.13
2019-05-05T14:31:29.466Z,93751.16
2019-05-05T14:33:56.134Z,93752.18
2019-05-05T14:36:24.432Z,93752.72
2019-05-05T14:38:49.634Z,93749.94
2019-05-05T14:41:16.180Z,93738.17
2019-05-05T14:43:43.865Z,93731.13
2019-05-05T14:46:09.483Z,93733.27
2019-05-05T14:48:37.202Z,93747.91
2019-05-05T14:51:03.996Z,93764.69
2019-05-05T14:53:29.443Z,93770.62
2019-05-05T14:55:56.106Z,93775.13
2019-05-05T14:58:22.747Z,93759.40
2019-05-05T15:00:49.404Z,93769.23
2019-05-05T15:03:16.033Z,93765.43
2019-05-05T15:05:44.391Z,93764.31
2019-05-05T15:08:09.439Z,93769.13
2019-05-05T15:10:36.049Z,93765.13
2019-05-05T15:13:04.290Z,93753.95
2019-05-05T15:15:29.397Z,93758.39
2019-05-05T15:17:56.043Z,93762.08
2019-05-05T15:20:24.499Z,93764.22
2019-05-05T15:22:49.347Z,93762.45
2019-05-05T15:27:45.011Z,93747.08
2019-05-05T15:30:09.321Z,93750.22
2019-05-05T15:32:35.983Z,93763.20
2019-05-05T15:35:03.994Z,93761.81
2019-05-05T15:37:29.267Z,93757.91
2019-05-05T15:39:55.901Z,93763.09
2019-05-05T15:42:22.541Z,93754.86
2019-05-05T15:44:49.229Z,93755.61
2019-05-05T15:47:15.881Z,93767.27
2019-05-05T15:49:44.083Z,93759.88
2019-05-05T15:52:09.198Z,93740.80
2019-05-05T15:54:35.825Z,93740.80
2019-05-05T15:57:06.345Z,93739.52
2019-05-05T15:59:29.178Z,93744.88
2019-05-05T16:01:55.821Z,93754.33
2019-05-05T16:04:23.560Z,93740.23
2019-05-05T16:06:49.137Z,93747.18
2019-05-05T16:09:15.805Z,93748.87
2019-05-05T16:11:46.574Z,93750.63
2019-05-05T16:14:09.127Z,93753.11
2019-05-05T16:16:35.819Z,93755.07
2019-05-05T16:19:06.316Z,93759.41
2019-05-05T16:21:29.173Z,93753.20
2019-05-05T16:26:24.431Z,93763.47
2019-05-05T16:28:49.128Z,93762.28
2019-05-05T16:31:15.804Z,93769.88
2019-05-05T16:33:44.123Z,93765.61
2019-05-05T16:36:09.096Z,93770.89
2019-05-05T16:38:35.768Z,93770.05
2019-05-05T16:41:02.447Z,93779.13
2019-05-05T16:43:29.091Z,93774.31
2019-05-05T16:45:55.751Z,93775.23
2019-05-05T16:48:25.292Z,93771.91
2019-05-05T16:50:49.069Z,93769.98
2019-05-05T16:53:15.769Z,93762.46
2019-05-05T16:55:42.405Z,93762.19
2019-05-05T16:58:09.048Z,93761.54
2019-05-05T17:00:35.758Z,93771.17
2019-05-05T17:03:04.146Z,93769.51
2019-05-05T17:05:29.045Z,93771.09
2019-05-05T17:07:58.274Z,93784.69
2019-05-05T17:10:24.299Z,93785.91
2019-05-05T17:12:49.050Z,93791.93
2019-05-05T17:15:15.741Z,93794.78
2019-05-05T17:17:44.458Z,93799.05
2019-05-05T17:20:09.032Z,93797.48
2019-05-05T17:22:35.671Z,93792.38
2019-05-05T17:25:02.355Z,93790.07
2019-05-05T17:27:29.005Z,93789.70
2019-05-05T17:29:55.680Z,93792.10
2019-05-05T17:32:22.304Z,93789.97
2019-05-05T17:34:48.996Z,93798.03
2019-05-05T17:37:15.630Z,93795.52
2019-05-05T17:39:43.776Z,93808.67
2019-05-05T17:42:08.961Z,93815.81
2019-05-05T17:44:35.615Z,93816.66
2019-05-05T17:47:04.341Z,93826.55
2019-05-05T17:49:28.890Z,93833.33
2019-05-05T17:51:55.541Z,93832.30
2019-05-05T17:54:24.089Z,93827.84
2019-05-05T17:56:54.418Z,93831.35
2019-05-05T17:59:18.365Z,93840.90
2019-05-05T18:01:45.003Z,93844.88
2019-05-05T18:04:13.498Z,93844.23
2019-05-05T18:06:38.355Z,93845.17
2019-05-05T18:11:31.649Z,93846.17
2019-05-05T18:13:58.302Z,93856.17
2019-05-05T18:16:26.917Z,93852.16
2019-05-05T18:18:51.571Z,93853.38
2019-05-05T18:21:18.208Z,93859.96
2019-05-05T18:23:44.919Z,93871.92
2019-05-05T18:26:13.515Z,93873.67
2019-05-05T18:28:38.270Z,93882.08
2019-05-05T18:31:05.617Z,93875.77
2019-05-05T18:33:31.584Z,93882.17
2019-05-05T18:35:58.211Z,93890.70
2019-05-05T18:38:24.899Z,93887.08
2019-05-05T18:40:51.548Z,93885.58
2019-05-05T18:43:18.187Z,93879.85
2019-05-05T18:45:44.927Z,93892.88
2019-05-05T18:48:11.564Z,93906.34
2019-05-05T18:50:38.255Z,93901.88
2019-05-05T18:53:04.898Z,93890.22
2019-05-05T18:57:58.220Z,93898.17
2019-05-05T19:00:24.925Z,93894.11
2019-05-05T19:02:53.425Z,93883.75
2019-05-05T19:05:18.203Z,93894.86
2019-05-05T19:07:55.144Z,93900.20
2019-05-05T19:10:11.515Z,93909.64
2019-05-05T19:12:38.225Z,93915.39
2019-05-05T19:15:04.807Z,93913.43
2019-05-05T19:17:31.462Z,93918.23
2019-05-05T19:19:58.096Z,93919.34
2019-05-05T19:22:24.772Z,93915.55
2019-05-05T19:24:51.426Z,93917.03
2019-05-05T19:27:18.110Z,93942.47
2019-05-05T19:29:46.250Z,93948.87
2019-05-05T19:32:11.427Z,93942.13
2019-05-05T19:34:38.029Z,93934.72
2019-05-05T19:37:04.719Z,93929.05
2019-05-05T19:39:31.349Z,93926.44
2019-05-05T19:41:58.044Z,93928.47
2019-05-05T19:44:26.103Z,93928.22
2019-05-05T19:46:51.347Z,93916.23
2019-05-05T19:49:18.030Z,93901.80
2019-05-05T19:51:44.786Z,93906.04
2019-05-05T19:54:11.339Z,93902.61
2019-05-05T19:56:37.992Z,93902.91
2019-05-05T19:59:04.701Z,93897.55
2019-05-05T20:01:35.432Z,93894.20
2019-05-05T20:04:00.773Z,93895.22
2019-05-05T20:06:27.410Z,93869.39
2019-05-05T20:08:54.055Z,93884.40
2019-05-05T20:11:20.684Z,93887.62
2019-05-05T20:13:47.381Z,93884.91
2019-05-05T20:16:14.070Z,93890.47
2019-05-05T20:18:40.789Z,93881.05
2019-05-05T20:21:07.582Z,93881.11
2019-05-05T20:23:34.177Z,93877.71
2019-05-05T20:26:00.716Z,93876.04
2019-05-05T20:30:54.186Z,93888.70
2019-05-05T20:33:20.751Z,93882.32
2019-05-05T20:35:47.351Z,93882.96
2019-05-05T20:38:14.361Z,93876.02
2019-05-05T20:43:07.324Z,93870.37
2019-05-05T20:45:34.688Z,93867.66
2019-05-05T20:48:00.673Z,93868.97
2019-05-05T20:50:27.328Z,93866.86
2019-05-05T20:52:54.057Z,93862.79
2019-05-05T20:55:20.670Z,93867.41
2019-05-05T20:57:47.356Z,93866.30
2019-05-05T21:00:14.506Z,93862.70
2019-05-05T21:05:07.416Z,93866.67
2019-05-05T21:07:34.695Z,93869.25
2019-05-05T21:10:00.747Z,93876.02
2019-05-05T21:12:39.079Z,93870.65
2019-05-05T21:14:54.072Z,93869.34
2019-05-05T21:17:20.782Z,93866.75
2019-05-05T21:19:47.417Z,93864.89
2019-05-05T21:22:14.046Z,93868.22
2019-05-05T21:24:40.692Z,93878.88
2019-05-05T21:27:07.330Z,93875.25
2019-05-05T21:29:41.943Z,93874.80
2019-05-05T21:32:00.662Z,93870.16
2019-05-05T21:34:27.301Z,93877.20
2019-05-05T21:36:54.212Z,93875.23
2019-05-05T21:39:20.577Z,93871.64
2019-05-05T21:41:47.353Z,93875.90
2019-05-05T21:44:14.687Z,93871.54
2019-05-05T21:46:40.670Z,93877.08
2019-05-05T21:49:07.306Z,93875.16
2019-05-05T21:51:34.972Z,93872.00
2019-05-05T21:54:00.639Z,93873.16
2019-05-05T21:56:27.278Z,93865.33
2019-05-05T21:58:53.943Z,93866.81
2019-05-05T22:03:47.245Z,93863.93
2019-05-05T22:06:14.648Z,93862.06
2019-05-05T22:08:40.537Z,93872.81
2019-05-05T22:11:07.183Z,93880.84
2019-05-05T22:13:36.190Z,93883.75
2019-05-05T22:16:00.506Z,93882.30
2019-05-05T22:18:27.151Z,93888.89
2019-05-05T22:20:54.632Z,93887.70
2019-05-05T22:23:20.442Z,93885.47
2019-05-05T22:25:47.113Z,93888.89
2019-05-05T22:28:15.097Z,93883.58
2019-05-05T22:30:40.427Z,93889.53
2019-05-05T22:33:07.082Z,93888.05
2019-05-05T22:35:34.877Z,93892.12
2019-05-05T22:38:00.372Z,93890.17
2019-05-05T22:40:27.052Z,93890.46
2019-05-05T22:42:54.685Z,93886.17
2019-05-05T22:45:20.339Z,93888.86
2019-05-05T22:50:13.909Z,93902.70
2019-05-05T22:52:40.288Z,93912.70
2019-05-05T22:55:06.934Z,93912.52
2019-05-05T22:57:34.529Z,93905.87
2019-05-05T23:00:00.216Z,93900.30
2019-05-05T23:02:26.862Z,93898.38
2019-05-05T23:04:54.531Z,93904.59
2019-05-05T23:07:20.177Z,93900.86
2019-05-05T23:09:46.825Z,93902.78
2019-05-05T23:12:13.690Z,93902.03
2019-05-05T23:14:40.170Z,93908.17
2019-05-05T23:17:06.820Z,93904.37
2019-05-05T23:19:33.697Z,93903.80
2019-05-05T23:22:00.164Z,93904.63
2019-05-05T23:24:26.851Z,93900.36
2019-05-05T23:26:54.580Z,93901.08
2019-05-05T23:29:20.171Z,93899.98
2019-05-05T23:31:46.816Z,93904.03
2019-05-05T23:34:14.756Z,93906.71
2019-05-05T23:36:40.093Z,93906.55
2019-05-05T23:39:06.761Z,93909.41
2019-05-05T23:41:35.763Z,93906.28
2019-05-05T23:44:03.669Z,93913.19
2019-05-05T23:48:55.713Z,93909.59
2019-05-05T23:51:24.172Z,93905.78
2019-05-05T23:53:48.985Z,93899.77
2019-05-05T23:56:15.619Z,93908.09
2019-05-05T23:58:44.076Z,93914.81
